This is the latest recevied weather packets stored in our database for station/object SP9WPN-12. If no packets are shown the sender has not sent any weather packets the latest 10 day(s).
| Time | Temp. | Humidity | Pressure | Rain* | Wind** | Luminosity | Snow |
|---|---|---|---|---|---|---|---|
| 1777641541 | 21.67° C | 35% | 1024.7 hPa | - | - | - | - |
| 1777640944 | 22.22° C | 34% | 1024.7 hPa | - | - | - | - |
| 1777640345 | 22.22° C | 35% | 1024.8 hPa | - | - | - | - |
| 1777639749 | 20.56° C | 36% | 1025.1 hPa | - | - | - | - |
| 1777639150 | 22.22° C | 34% | 1025 hPa | - | - | - | - |
| 1777638552 | 20.56° C | 37% | 1025.4 hPa | - | - | - | - |
| 1777637955 | 21.11° C | 35% | 1025.4 hPa | - | - | - | - |
| 1777637358 | 20.56° C | 35% | 1025.5 hPa | - | - | - | - |
| 1777636760 | 20.56° C | 35% | 1025.7 hPa | - | - | - | - |
| 1777636162 | 22.22° C | 33% | 1025.4 hPa | - | - | - | - |
| 1777635564 | 21.67° C | 34% | 1025.6 hPa | - | - | - | - |
| 1777634967 | 20.56° C | 35% | 1025.7 hPa | - | - | - | - |
| 1777634369 | 21.11° C | 33% | 1025.6 hPa | - | - | - | - |
| 1777633771 | 22.22° C | 32% | 1025.6 hPa | - | - | - | - |
| 1777633173 | 22.22° C | 32% | 1025.8 hPa | - | - | - | - |
| 1777632576 | 21.11° C | 33% | 1025.9 hPa | - | - | - | - |
| 1777631978 | 21.11° C | 33% | 1025.9 hPa | - | - | - | - |
| 1777631381 | 21.11° C | 33% | 1026 hPa | - | - | - | - |
| 1777630783 | 21.11° C | 33% | 1026.1 hPa | - | - | - | - |
| 1777630186 | 21.11° C | 33% | 1026.1 hPa | - | - | - | - |
| 1777629588 | 20.56° C | 34% | 1026.4 hPa | - | - | - | - |
| 1777628990 | 20° C | 36% | 1026.6 hPa | - | - | - | - |
| 1777628392 | 20.56° C | 36% | 1026.5 hPa | - | - | - | - |
| 1777627794 | 20° C | 37% | 1026.8 hPa | - | - | - | - |
| 1777627196 | 19.44° C | 38% | 1026.9 hPa | - | - | - | - |
* Rain since midnight (hover to see other rain measurements)
** Current wind speed in m/s (hover to see current wind gust speed)